The Eastern Iowa Airport

Airport
ICAO code: 
KCID
IATA Code: 
CID
Summary
ICAO Region: 
NAM
Territory: 
Location: 
Cedar Rapids, Iowa,
Serving: 
Cedar Rapids
Elevation: 
869 ft
Coordinates: 
Aerial View: 
41° 53' 6.551" N, 91° 42' 49.706" W
Airport CFIT: 
Altimeter Temperature Error Correction
Metar
Observation
KCID 040652Z AUTO 34006KT 9SM CLR M02/M02 A3021 RMK AO2 SLP238 T10171017
Station
Cedar Rapids, The Eastern Iowa Airport
Date/Time
2021-12-04 06:52:00
Wind direction
340°
Wind speed
06 kts
Lowest cloud amount
n/a
Temperature
-1.7°C
Dew point
-1.7°C
Humidity
100%
Weather condition
n/a

Description

The Eastern Iowa Airport is a commercial airport in Cedar Rapids, Iowa,.

Climatology

Humid continental climate (Köppen climate classification Dfa) - characterized by four seasons: cold, windy, snowy winters, mild springs, hot, humid summers, and crisp and relatively short autumns. Precipitation reaches its lowest in January and February and peaks in summer and latter half of spring.

Runways

Designator Length Width Surface Rops
13/31 1890 46 PER Yes/Yes
9/27 2622 46 PER Yes/Yes
Airport map: 
Aerial View: 

SKYbrary Partners:

Safety knowledge contributed by: